KFRI/FRI METAR and TAF weather

Enter ICAO airport designator
Station Type Date Time Source
KFRI METAR 2019/11/18 10:56 UTC NOAA

KFRI 181056Z AUTO 22005KT 10SM OVC090 08/00 A2979 RMK AO2 SLP088 T00751005


Station Type Date Time Source
KFRI Decoded METAR 2019/11/18 10:56 UTC NOAA

Fort Riley, Marshall AAF Ft Riley, KS, United States (KFRI) 39-03-20N 096-45-51W
Nov 18, 2019 - 05:56 AM EST / 2019.11.18 1056 UTC
Wind: from the SW (220 degrees) at 6 MPH (5 KT):0
Visibility: 10 mile(s):0
Sky conditions: overcast
Temperature: 45.5 F (7.5 C)
Dew Point: 31.1 F (-0.5 C)
Relative Humidity: 56%
Pressure (altimeter): 29.79 in. Hg (1008 hPa)
ob: KFRI 181056Z AUTO 22005KT 10SM OVC090 08/00 A2979 RMK AO2 SLP088 T00751005
cycle: 11

Station Type Date Time Source
KFRI TAF 2019/11/18 05:09 UTC NOAA

TAF TAF KFRI 180500Z 1805/1911 VRB06KT 9999 SCT100 510009 510909 QNH2983INS
BECMG 1811/1812 22010KT 9999 SCT050 BKN070 QNH2977INS
BECMG 1815/1816 28010G20KT 9999 SCT030 BKN060 QNH2972INS
BECMG 1823/1900 VRB06KT 9999 SCT035 QNH2975INS TX19/1821Z TNM09/1812Z

Example: see airport list